sensor_id;sensor_type;location;lat;lon;timestamp;P1;durP1;ratioP1;P2;durP2;ratioP2
82835;SDS011;72587;50.746;8.246;2024-03-08T00:00:34;41.80;;;17.30;;
82835;SDS011;72587;50.746;8.246;2024-03-08T00:02:59;39.67;;;17.37;;
82835;SDS011;72587;50.746;8.246;2024-03-08T00:05:27;40.17;;;17.30;;
82835;SDS011;72587;50.746;8.246;2024-03-08T00:07:53;37.00;;;16.70;;
82835;SDS011;72587;50.746;8.246;2024-03-08T00:10:18;37.17;;;17.03;;
82835;SDS011;72587;50.746;8.246;2024-03-08T00:12:45;36.53;;;15.70;;
82835;SDS011;72587;50.746;8.246;2024-03-08T00:15:12;39.23;;;17.80;;
82835;SDS011;72587;50.746;8.246;2024-03-08T00:17:42;41.83;;;17.27;;
82835;SDS011;72587;50.746;8.246;2024-03-08T00:20:08;37.97;;;17.37;;
82835;SDS011;72587;50.746;8.246;2024-03-08T00:22:35;41.40;;;18.77;;
82835;SDS011;72587;50.746;8.246;2024-03-08T00:25:01;33.90;;;15.70;;
82835;SDS011;72587;50.746;8.246;2024-03-08T00:27:28;36.30;;;16.67;;
82835;SDS011;72587;50.746;8.246;2024-03-08T00:29:55;40.03;;;16.97;;
82835;SDS011;72587;50.746;8.246;2024-03-08T00:32:21;40.57;;;16.90;;
82835;SDS011;72587;50.746;8.246;2024-03-08T00:34:49;40.13;;;16.77;;
82835;SDS011;72587;50.746;8.246;2024-03-08T00:37:19;35.87;;;16.50;;
82835;SDS011;72587;50.746;8.246;2024-03-08T00:39:45;40.53;;;16.57;;
82835;SDS011;72587;50.746;8.246;2024-03-08T00:42:11;38.63;;;16.13;;
82835;SDS011;72587;50.746;8.246;2024-03-08T00:44:37;36.87;;;16.40;;
82835;SDS011;72587;50.746;8.246;2024-03-08T00:47:03;33.50;;;15.40;;
82835;SDS011;72587;50.746;8.246;2024-03-08T00:49:29;38.07;;;16.20;;
82835;SDS011;72587;50.746;8.246;2024-03-08T00:51:55;34.13;;;15.57;;
82835;SDS011;72587;50.746;8.246;2024-03-08T00:54:21;36.27;;;15.80;;
82835;SDS011;72587;50.746;8.246;2024-03-08T00:56:47;41.27;;;17.17;;
82835;SDS011;72587;50.746;8.246;2024-03-08T00:59:13;34.30;;;15.93;;
82835;SDS011;72587;50.746;8.246;2024-03-08T01:01:40;34.27;;;15.00;;
82835;SDS011;72587;50.746;8.246;2024-03-08T01:04:06;36.67;;;16.57;;
82835;SDS011;72587;50.746;8.246;2024-03-08T01:06:32;38.30;;;16.23;;
82835;SDS011;72587;50.746;8.246;2024-03-08T01:08:58;37.40;;;16.27;;
82835;SDS011;72587;50.746;8.246;2024-03-08T01:11:25;37.90;;;16.57;;
82835;SDS011;72587;50.746;8.246;2024-03-08T01:13:53;35.00;;;15.63;;
82835;SDS011;72587;50.746;8.246;2024-03-08T01:16:19;38.87;;;16.67;;
82835;SDS011;72587;50.746;8.246;2024-03-08T01:18:47;36.63;;;16.20;;
82835;SDS011;72587;50.746;8.246;2024-03-08T01:21:13;39.33;;;15.63;;
82835;SDS011;72587;50.746;8.246;2024-03-08T01:23:39;37.80;;;16.03;;
82835;SDS011;72587;50.746;8.246;2024-03-08T01:26:05;43.10;;;16.77;;
82835;SDS011;72587;50.746;8.246;2024-03-08T01:28:31;37.63;;;15.60;;
82835;SDS011;72587;50.746;8.246;2024-03-08T01:30:59;35.10;;;16.33;;
82835;SDS011;72587;50.746;8.246;2024-03-08T01:33:26;38.13;;;16.17;;
82835;SDS011;72587;50.746;8.246;2024-03-08T01:35:52;37.87;;;16.73;;
82835;SDS011;72587;50.746;8.246;2024-03-08T01:38:19;39.57;;;15.93;;
82835;SDS011;72587;50.746;8.246;2024-03-08T01:40:46;38.07;;;16.37;;
82835;SDS011;72587;50.746;8.246;2024-03-08T01:43:18;35.07;;;15.33;;
82835;SDS011;72587;50.746;8.246;2024-03-08T01:45:44;40.40;;;16.37;;
82835;SDS011;72587;50.746;8.246;2024-03-08T01:48:10;36.97;;;15.60;;
82835;SDS011;72587;50.746;8.246;2024-03-08T01:50:37;38.27;;;16.47;;
82835;SDS011;72587;50.746;8.246;2024-03-08T01:53:05;34.77;;;15.60;;
82835;SDS011;72587;50.746;8.246;2024-03-08T01:55:32;34.57;;;16.00;;
82835;SDS011;72587;50.746;8.246;2024-03-08T01:57:58;38.87;;;16.63;;
82835;SDS011;72587;50.746;8.246;2024-03-08T02:00:25;38.70;;;16.73;;
82835;SDS011;72587;50.746;8.246;2024-03-08T02:02:51;41.97;;;17.23;;
82835;SDS011;72587;50.746;8.246;2024-03-08T02:05:19;35.87;;;16.00;;
82835;SDS011;72587;50.746;8.246;2024-03-08T02:07:45;36.77;;;15.70;;
82835;SDS011;72587;50.746;8.246;2024-03-08T02:10:11;37.27;;;16.63;;
82835;SDS011;72587;50.746;8.246;2024-03-08T02:12:38;37.47;;;16.50;;
82835;SDS011;72587;50.746;8.246;2024-03-08T02:15:04;37.83;;;16.13;;
82835;SDS011;72587;50.746;8.246;2024-03-08T02:17:31;46.87;;;18.00;;
82835;SDS011;72587;50.746;8.246;2024-03-08T02:20:00;41.07;;;16.50;;
82835;SDS011;72587;50.746;8.246;2024-03-08T02:22:28;42.80;;;17.07;;
82835;SDS011;72587;50.746;8.246;2024-03-08T02:24:54;41.97;;;17.93;;
82835;SDS011;72587;50.746;8.246;2024-03-08T02:27:24;37.67;;;16.60;;
82835;SDS011;72587;50.746;8.246;2024-03-08T02:29:54;45.33;;;17.63;;
82835;SDS011;72587;50.746;8.246;2024-03-08T02:32:24;41.27;;;17.57;;
82835;SDS011;72587;50.746;8.246;2024-03-08T02:34:50;50.33;;;16.73;;
82835;SDS011;72587;50.746;8.246;2024-03-08T02:37:16;41.40;;;18.07;;
82835;SDS011;72587;50.746;8.246;2024-03-08T02:39:42;44.03;;;16.77;;
82835;SDS011;72587;50.746;8.246;2024-03-08T02:42:08;42.97;;;17.23;;
82835;SDS011;72587;50.746;8.246;2024-03-08T02:44:34;40.50;;;16.50;;
82835;SDS011;72587;50.746;8.246;2024-03-08T02:47:00;43.77;;;17.00;;
82835;SDS011;72587;50.746;8.246;2024-03-08T02:49:26;43.97;;;18.33;;
82835;SDS011;72587;50.746;8.246;2024-03-08T02:51:55;37.87;;;16.33;;
82835;SDS011;72587;50.746;8.246;2024-03-08T02:54:22;42.40;;;17.77;;
82835;SDS011;72587;50.746;8.246;2024-03-08T02:56:49;38.63;;;15.30;;
82835;SDS011;72587;50.746;8.246;2024-03-08T02:59:18;38.70;;;16.10;;
82835;SDS011;72587;50.746;8.246;2024-03-08T03:01:44;41.13;;;17.30;;
82835;SDS011;72587;50.746;8.246;2024-03-08T03:04:10;43.23;;;17.00;;
82835;SDS011;72587;50.746;8.246;2024-03-08T03:06:36;43.17;;;17.43;;
82835;SDS011;72587;50.746;8.246;2024-03-08T03:09:02;45.57;;;17.43;;
82835;SDS011;72587;50.746;8.246;2024-03-08T03:11:31;41.77;;;15.40;;
82835;SDS011;72587;50.746;8.246;2024-03-08T03:13:57;36.80;;;16.23;;
82835;SDS011;72587;50.746;8.246;2024-03-08T03:16:23;48.87;;;17.30;;
82835;SDS011;72587;50.746;8.246;2024-03-08T03:18:49;39.47;;;17.27;;
82835;SDS011;72587;50.746;8.246;2024-03-08T03:21:15;41.73;;;16.70;;
82835;SDS011;72587;50.746;8.246;2024-03-08T03:23:42;40.43;;;16.77;;
82835;SDS011;72587;50.746;8.246;2024-03-08T03:26:08;35.47;;;16.60;;
82835;SDS011;72587;50.746;8.246;2024-03-08T03:28:38;40.67;;;17.37;;
82835;SDS011;72587;50.746;8.246;2024-03-08T03:31:06;41.77;;;16.70;;
82835;SDS011;72587;50.746;8.246;2024-03-08T03:33:32;46.97;;;17.00;;
82835;SDS011;72587;50.746;8.246;2024-03-08T03:35:59;44.27;;;17.27;;
82835;SDS011;72587;50.746;8.246;2024-03-08T03:38:26;40.83;;;16.90;;
82835;SDS011;72587;50.746;8.246;2024-03-08T03:40:53;41.53;;;16.87;;
82835;SDS011;72587;50.746;8.246;2024-03-08T03:43:22;44.73;;;17.90;;
82835;SDS011;72587;50.746;8.246;2024-03-08T03:45:48;39.20;;;16.43;;
82835;SDS011;72587;50.746;8.246;2024-03-08T03:48:14;42.20;;;17.00;;
82835;SDS011;72587;50.746;8.246;2024-03-08T03:50:40;41.87;;;17.17;;
82835;SDS011;72587;50.746;8.246;2024-03-08T03:53:06;39.33;;;16.97;;
82835;SDS011;72587;50.746;8.246;2024-03-08T03:55:32;41.37;;;17.00;;
82835;SDS011;72587;50.746;8.246;2024-03-08T03:57:58;41.63;;;17.03;;
82835;SDS011;72587;50.746;8.246;2024-03-08T04:00:26;46.33;;;17.77;;
82835;SDS011;72587;50.746;8.246;2024-03-08T04:02:52;39.33;;;16.93;;
82835;SDS011;72587;50.746;8.246;2024-03-08T04:05:18;42.23;;;17.10;;
82835;SDS011;72587;50.746;8.246;2024-03-08T04:07:44;43.13;;;17.23;;
82835;SDS011;72587;50.746;8.246;2024-03-08T04:10:10;37.77;;;15.97;;
82835;SDS011;72587;50.746;8.246;2024-03-08T04:12:37;40.83;;;17.23;;
82835;SDS011;72587;50.746;8.246;2024-03-08T04:15:03;48.70;;;17.47;;
82835;SDS011;72587;50.746;8.246;2024-03-08T04:17:32;45.70;;;17.57;;
82835;SDS011;72587;50.746;8.246;2024-03-08T04:19:58;42.23;;;16.67;;
82835;SDS011;72587;50.746;8.246;2024-03-08T04:22:24;37.60;;;15.90;;
82835;SDS011;72587;50.746;8.246;2024-03-08T04:24:50;44.43;;;17.43;;
82835;SDS011;72587;50.746;8.246;2024-03-08T04:27:15;44.20;;;16.77;;
82835;SDS011;72587;50.746;8.246;2024-03-08T04:29:41;44.83;;;17.30;;
82835;SDS011;72587;50.746;8.246;2024-03-08T04:32:08;45.10;;;17.93;;
82835;SDS011;72587;50.746;8.246;2024-03-08T04:34:34;40.83;;;16.93;;
82835;SDS011;72587;50.746;8.246;2024-03-08T04:37:03;44.43;;;17.33;;
82835;SDS011;72587;50.746;8.246;2024-03-08T04:39:29;45.10;;;18.57;;
82835;SDS011;72587;50.746;8.246;2024-03-08T04:42:00;40.70;;;17.07;;
82835;SDS011;72587;50.746;8.246;2024-03-08T04:44:31;42.27;;;17.57;;
82835;SDS011;72587;50.746;8.246;2024-03-08T04:46:58;47.60;;;18.87;;
82835;SDS011;72587;50.746;8.246;2024-03-08T04:49:25;47.07;;;18.87;;
82835;SDS011;72587;50.746;8.246;2024-03-08T04:51:52;42.87;;;17.10;;
82835;SDS011;72587;50.746;8.246;2024-03-08T04:54:18;45.63;;;18.17;;
82835;SDS011;72587;50.746;8.246;2024-03-08T04:56:44;45.40;;;17.13;;
82835;SDS011;72587;50.746;8.246;2024-03-08T04:59:11;46.53;;;17.00;;
82835;SDS011;72587;50.746;8.246;2024-03-08T05:01:37;56.57;;;18.87;;
82835;SDS011;72587;50.746;8.246;2024-03-08T05:04:03;47.53;;;17.67;;
82835;SDS011;72587;50.746;8.246;2024-03-08T05:06:29;48.77;;;18.13;;
82835;SDS011;72587;50.746;8.246;2024-03-08T05:08:55;47.40;;;17.97;;
82835;SDS011;72587;50.746;8.246;2024-03-08T05:11:21;44.67;;;16.67;;
82835;SDS011;72587;50.746;8.246;2024-03-08T05:13:47;37.03;;;15.93;;
82835;SDS011;72587;50.746;8.246;2024-03-08T05:16:13;38.67;;;16.53;;
82835;SDS011;72587;50.746;8.246;2024-03-08T05:18:40;46.50;;;16.67;;
82835;SDS011;72587;50.746;8.246;2024-03-08T05:21:07;44.57;;;17.10;;
82835;SDS011;72587;50.746;8.246;2024-03-08T05:23:34;45.20;;;16.97;;
82835;SDS011;72587;50.746;8.246;2024-03-08T05:26:00;41.60;;;16.40;;
82835;SDS011;72587;50.746;8.246;2024-03-08T05:28:26;48.13;;;17.63;;
82835;SDS011;72587;50.746;8.246;2024-03-08T05:30:52;45.23;;;17.03;;
82835;SDS011;72587;50.746;8.246;2024-03-08T05:33:18;44.03;;;17.23;;
82835;SDS011;72587;50.746;8.246;2024-03-08T05:35:44;44.30;;;16.63;;
82835;SDS011;72587;50.746;8.246;2024-03-08T05:38:10;45.00;;;17.23;;
82835;SDS011;72587;50.746;8.246;2024-03-08T05:40:38;43.87;;;17.17;;
82835;SDS011;72587;50.746;8.246;2024-03-08T05:43:03;46.43;;;18.23;;
82835;SDS011;72587;50.746;8.246;2024-03-08T05:45:30;47.60;;;18.53;;
82835;SDS011;72587;50.746;8.246;2024-03-08T05:47:56;44.33;;;17.10;;
82835;SDS011;72587;50.746;8.246;2024-03-08T05:50:22;40.40;;;17.07;;
82835;SDS011;72587;50.746;8.246;2024-03-08T05:52:48;42.90;;;17.87;;
82835;SDS011;72587;50.746;8.246;2024-03-08T05:55:14;45.17;;;18.27;;
82835;SDS011;72587;50.746;8.246;2024-03-08T05:57:41;43.10;;;17.87;;
82835;SDS011;72587;50.746;8.246;2024-03-08T06:00:07;45.57;;;17.20;;
82835;SDS011;72587;50.746;8.246;2024-03-08T06:02:34;50.00;;;17.93;;
82835;SDS011;72587;50.746;8.246;2024-03-08T06:05:05;46.27;;;18.47;;
82835;SDS011;72587;50.746;8.246;2024-03-08T06:07:31;53.53;;;19.40;;
82835;SDS011;72587;50.746;8.246;2024-03-08T06:09:57;46.27;;;16.67;;
82835;SDS011;72587;50.746;8.246;2024-03-08T06:12:25;42.37;;;18.37;;
82835;SDS011;72587;50.746;8.246;2024-03-08T06:14:54;42.57;;;17.50;;
82835;SDS011;72587;50.746;8.246;2024-03-08T06:17:19;44.67;;;17.83;;
82835;SDS011;72587;50.746;8.246;2024-03-08T06:19:50;57.03;;;24.00;;
82835;SDS011;72587;50.746;8.246;2024-03-08T06:22:17;47.40;;;19.70;;
82835;SDS011;72587;50.746;8.246;2024-03-08T06:24:44;52.70;;;20.27;;
82835;SDS011;72587;50.746;8.246;2024-03-08T06:27:10;51.87;;;19.33;;
82835;SDS011;72587;50.746;8.246;2024-03-08T06:29:36;48.80;;;18.13;;
82835;SDS011;72587;50.746;8.246;2024-03-08T06:32:02;50.40;;;18.13;;
82835;SDS011;72587;50.746;8.246;2024-03-08T06:34:28;53.90;;;19.33;;
82835;SDS011;72587;50.746;8.246;2024-03-08T06:36:54;75.90;;;22.07;;
82835;SDS011;72587;50.746;8.246;2024-03-08T06:39:25;86.27;;;26.67;;
82835;SDS011;72587;50.746;8.246;2024-03-08T06:41:51;68.57;;;23.87;;
82835;SDS011;72587;50.746;8.246;2024-03-08T06:44:17;70.80;;;22.40;;
82835;SDS011;72587;50.746;8.246;2024-03-08T06:46:46;55.93;;;20.47;;
82835;SDS011;72587;50.746;8.246;2024-03-08T06:49:13;55.67;;;21.53;;
82835;SDS011;72587;50.746;8.246;2024-03-08T06:51:40;72.50;;;22.50;;
82835;SDS011;72587;50.746;8.246;2024-03-08T06:54:06;60.10;;;21.07;;
82835;SDS011;72587;50.746;8.246;2024-03-08T06:56:34;58.70;;;22.23;;
82835;SDS011;72587;50.746;8.246;2024-03-08T06:59:00;65.90;;;23.90;;
82835;SDS011;72587;50.746;8.246;2024-03-08T07:01:28;65.73;;;24.53;;
82835;SDS011;72587;50.746;8.246;2024-03-08T07:03:57;74.97;;;26.20;;
82835;SDS011;72587;50.746;8.246;2024-03-08T07:06:23;60.60;;;22.87;;
82835;SDS011;72587;50.746;8.246;2024-03-08T07:08:49;68.43;;;23.33;;
82835;SDS011;72587;50.746;8.246;2024-03-08T07:11:14;64.03;;;21.63;;
82835;SDS011;72587;50.746;8.246;2024-03-08T07:13:44;54.87;;;22.13;;
82835;SDS011;72587;50.746;8.246;2024-03-08T07:16:10;54.17;;;21.50;;
82835;SDS011;72587;50.746;8.246;2024-03-08T07:18:36;54.57;;;21.50;;
82835;SDS011;72587;50.746;8.246;2024-03-08T07:21:08;61.60;;;20.97;;
82835;SDS011;72587;50.746;8.246;2024-03-08T07:23:34;61.70;;;22.00;;
82835;SDS011;72587;50.746;8.246;2024-03-08T07:26:19;73.23;;;22.47;;
82835;SDS011;72587;50.746;8.246;2024-03-08T07:28:45;66.60;;;21.60;;
82835;SDS011;72587;50.746;8.246;2024-03-08T07:31:11;69.77;;;22.70;;
82835;SDS011;72587;50.746;8.246;2024-03-08T07:33:56;81.50;;;22.13;;
82835;SDS011;72587;50.746;8.246;2024-03-08T07:36:23;59.73;;;21.20;;
82835;SDS011;72587;50.746;8.246;2024-03-08T07:38:49;57.83;;;21.57;;
82835;SDS011;72587;50.746;8.246;2024-03-08T07:41:15;53.60;;;22.53;;
82835;SDS011;72587;50.746;8.246;2024-03-08T07:43:41;68.40;;;24.30;;
82835;SDS011;72587;50.746;8.246;2024-03-08T07:46:07;60.77;;;24.37;;
82835;SDS011;72587;50.746;8.246;2024-03-08T07:48:35;59.83;;;23.23;;
82835;SDS011;72587;50.746;8.246;2024-03-08T07:51:02;63.07;;;25.17;;
82835;SDS011;72587;50.746;8.246;2024-03-08T07:53:28;65.03;;;23.77;;
82835;SDS011;72587;50.746;8.246;2024-03-08T07:55:54;58.93;;;23.23;;
82835;SDS011;72587;50.746;8.246;2024-03-08T07:58:20;52.43;;;23.70;;
82835;SDS011;72587;50.746;8.246;2024-03-08T08:00:46;51.33;;;21.27;;
82835;SDS011;72587;50.746;8.246;2024-03-08T08:03:12;48.87;;;21.00;;
82835;SDS011;72587;50.746;8.246;2024-03-08T08:05:38;46.17;;;21.43;;
82835;SDS011;72587;50.746;8.246;2024-03-08T08:08:04;50.33;;;20.37;;
82835;SDS011;72587;50.746;8.246;2024-03-08T08:10:31;43.33;;;19.87;;
82835;SDS011;72587;50.746;8.246;2024-03-08T08:12:57;51.10;;;20.20;;
82835;SDS011;72587;50.746;8.246;2024-03-08T08:15:23;39.60;;;19.07;;
82835;SDS011;72587;50.746;8.246;2024-03-08T08:17:49;40.07;;;18.07;;
82835;SDS011;72587;50.746;8.246;2024-03-08T08:20:14;40.43;;;18.53;;
82835;SDS011;72587;50.746;8.246;2024-03-08T08:22:40;38.97;;;17.53;;
82835;SDS011;72587;50.746;8.246;2024-03-08T08:25:08;39.13;;;17.77;;
82835;SDS011;72587;50.746;8.246;2024-03-08T08:27:34;35.43;;;17.77;;
82835;SDS011;72587;50.746;8.246;2024-03-08T08:30:03;38.20;;;18.50;;
82835;SDS011;72587;50.746;8.246;2024-03-08T08:32:33;33.50;;;16.10;;
82835;SDS011;72587;50.746;8.246;2024-03-08T08:34:59;36.03;;;20.67;;
82835;SDS011;72587;50.746;8.246;2024-03-08T08:37:24;33.30;;;16.17;;
82835;SDS011;72587;50.746;8.246;2024-03-08T08:39:50;35.00;;;17.47;;
82835;SDS011;72587;50.746;8.246;2024-03-08T08:42:17;33.67;;;16.90;;
82835;SDS011;72587;50.746;8.246;2024-03-08T08:44:43;33.17;;;16.03;;
82835;SDS011;72587;50.746;8.246;2024-03-08T08:47:09;34.07;;;16.83;;
82835;SDS011;72587;50.746;8.246;2024-03-08T08:49:35;33.73;;;16.07;;
82835;SDS011;72587;50.746;8.246;2024-03-08T08:52:01;36.03;;;16.27;;
82835;SDS011;72587;50.746;8.246;2024-03-08T08:54:28;32.23;;;16.07;;
82835;SDS011;72587;50.746;8.246;2024-03-08T08:56:54;30.13;;;15.03;;
82835;SDS011;72587;50.746;8.246;2024-03-08T08:59:20;31.60;;;15.93;;
82835;SDS011;72587;50.746;8.246;2024-03-08T09:01:48;35.57;;;16.10;;
82835;SDS011;72587;50.746;8.246;2024-03-08T09:04:15;29.77;;;15.13;;
82835;SDS011;72587;50.746;8.246;2024-03-08T09:06:41;33.20;;;15.00;;
82835;SDS011;72587;50.746;8.246;2024-03-08T09:09:07;32.83;;;15.93;;
82835;SDS011;72587;50.746;8.246;2024-03-08T09:11:34;32.27;;;14.67;;
82835;SDS011;72587;50.746;8.246;2024-03-08T09:14:00;31.60;;;15.40;;
82835;SDS011;72587;50.746;8.246;2024-03-08T09:16:27;28.73;;;14.27;;
82835;SDS011;72587;50.746;8.246;2024-03-08T09:18:53;30.10;;;14.00;;
82835;SDS011;72587;50.746;8.246;2024-03-08T09:21:19;28.40;;;13.90;;
82835;SDS011;72587;50.746;8.246;2024-03-08T09:23:45;31.17;;;14.47;;
82835;SDS011;72587;50.746;8.246;2024-03-08T09:26:11;26.43;;;14.00;;
82835;SDS011;72587;50.746;8.246;2024-03-08T09:28:40;28.03;;;13.87;;
82835;SDS011;72587;50.746;8.246;2024-03-08T09:31:06;24.23;;;13.37;;
82835;SDS011;72587;50.746;8.246;2024-03-08T09:33:32;26.90;;;13.30;;
82835;SDS011;72587;50.746;8.246;2024-03-08T09:35:58;28.40;;;13.73;;
82835;SDS011;72587;50.746;8.246;2024-03-08T09:38:24;27.93;;;12.80;;
82835;SDS011;72587;50.746;8.246;2024-03-08T09:40:51;26.20;;;13.30;;
82835;SDS011;72587;50.746;8.246;2024-03-08T09:43:18;24.97;;;12.77;;
82835;SDS011;72587;50.746;8.246;2024-03-08T09:45:44;30.87;;;14.73;;
82835;SDS011;72587;50.746;8.246;2024-03-08T09:48:11;30.67;;;13.87;;
82835;SDS011;72587;50.746;8.246;2024-03-08T09:50:39;29.53;;;12.90;;
82835;SDS011;72587;50.746;8.246;2024-03-08T09:53:06;30.23;;;13.13;;
82835;SDS011;72587;50.746;8.246;2024-03-08T09:55:38;26.03;;;12.47;;
82835;SDS011;72587;50.746;8.246;2024-03-08T09:58:10;28.67;;;13.07;;
82835;SDS011;72587;50.746;8.246;2024-03-08T10:00:43;25.27;;;13.07;;
82835;SDS011;72587;50.746;8.246;2024-03-08T10:03:09;23.00;;;12.13;;
82835;SDS011;72587;50.746;8.246;2024-03-08T10:05:35;23.37;;;12.13;;
82835;SDS011;72587;50.746;8.246;2024-03-08T10:08:02;24.43;;;12.20;;
82835;SDS011;72587;50.746;8.246;2024-03-08T10:10:28;23.80;;;12.03;;
82835;SDS011;72587;50.746;8.246;2024-03-08T10:12:55;25.07;;;13.07;;
82835;SDS011;72587;50.746;8.246;2024-03-08T10:15:21;24.47;;;11.87;;
82835;SDS011;72587;50.746;8.246;2024-03-08T10:17:47;26.03;;;13.47;;
82835;SDS011;72587;50.746;8.246;2024-03-08T10:20:17;24.63;;;12.87;;
82835;SDS011;72587;50.746;8.246;2024-03-08T10:22:43;23.63;;;12.30;;
82835;SDS011;72587;50.746;8.246;2024-03-08T10:25:09;29.80;;;13.50;;
82835;SDS011;72587;50.746;8.246;2024-03-08T10:27:36;25.93;;;13.37;;
82835;SDS011;72587;50.746;8.246;2024-03-08T10:30:04;24.87;;;13.00;;
82835;SDS011;72587;50.746;8.246;2024-03-08T10:32:31;27.13;;;13.30;;
82835;SDS011;72587;50.746;8.246;2024-03-08T10:34:57;25.00;;;12.77;;
82835;SDS011;72587;50.746;8.246;2024-03-08T10:37:24;24.93;;;13.30;;
82835;SDS011;72587;50.746;8.246;2024-03-08T10:40:02;26.63;;;12.47;;
82835;SDS011;72587;50.746;8.246;2024-03-08T10:42:43;23.93;;;11.90;;
82835;SDS011;72587;50.746;8.246;2024-03-08T10:45:15;25.27;;;13.00;;
82835;SDS011;72587;50.746;8.246;2024-03-08T10:47:47;24.80;;;12.87;;
82835;SDS011;72587;50.746;8.246;2024-03-08T10:50:18;22.63;;;13.10;;
82835;SDS011;72587;50.746;8.246;2024-03-08T10:52:49;23.13;;;12.23;;
82835;SDS011;72587;50.746;8.246;2024-03-08T10:55:15;24.60;;;13.43;;
82835;SDS011;72587;50.746;8.246;2024-03-08T10:57:44;26.97;;;13.63;;
82835;SDS011;72587;50.746;8.246;2024-03-08T11:00:13;28.43;;;13.33;;
82835;SDS011;72587;50.746;8.246;2024-03-08T11:02:43;26.00;;;13.53;;
82835;SDS011;72587;50.746;8.246;2024-03-08T11:05:31;24.73;;;13.37;;
82835;SDS011;72587;50.746;8.246;2024-03-08T11:08:00;23.40;;;12.90;;
82835;SDS011;72587;50.746;8.246;2024-03-08T11:10:26;27.03;;;12.93;;
82835;SDS011;72587;50.746;8.246;2024-03-08T11:12:52;25.03;;;12.87;;
82835;SDS011;72587;50.746;8.246;2024-03-08T11:15:18;25.57;;;13.30;;
82835;SDS011;72587;50.746;8.246;2024-03-08T11:17:47;25.87;;;12.93;;
82835;SDS011;72587;50.746;8.246;2024-03-08T11:20:14;23.07;;;12.57;;
82835;SDS011;72587;50.746;8.246;2024-03-08T11:22:42;27.67;;;12.47;;
82835;SDS011;72587;50.746;8.246;2024-03-08T11:25:15;23.93;;;12.67;;
82835;SDS011;72587;50.746;8.246;2024-03-08T11:28:10;23.37;;;12.27;;
82835;SDS011;72587;50.746;8.246;2024-03-08T11:30:41;28.13;;;13.63;;
82835;SDS011;72587;50.746;8.246;2024-03-08T11:33:10;22.87;;;12.73;;
82835;SDS011;72587;50.746;8.246;2024-03-08T11:35:37;31.00;;;14.73;;
82835;SDS011;72587;50.746;8.246;2024-03-08T11:38:04;26.73;;;13.70;;
82835;SDS011;72587;50.746;8.246;2024-03-08T11:40:31;23.73;;;12.77;;
82835;SDS011;72587;50.746;8.246;2024-03-08T11:43:01;25.50;;;12.73;;
82835;SDS011;72587;50.746;8.246;2024-03-08T11:45:32;23.13;;;12.83;;
82835;SDS011;72587;50.746;8.246;2024-03-08T11:48:01;23.67;;;13.03;;
82835;SDS011;72587;50.746;8.246;2024-03-08T11:50:28;23.13;;;12.37;;
82835;SDS011;72587;50.746;8.246;2024-03-08T11:52:59;25.50;;;13.40;;
82835;SDS011;72587;50.746;8.246;2024-03-08T11:55:25;25.80;;;13.67;;
82835;SDS011;72587;50.746;8.246;2024-03-08T11:57:59;24.00;;;12.43;;
82835;SDS011;72587;50.746;8.246;2024-03-08T12:00:25;23.43;;;12.13;;
82835;SDS011;72587;50.746;8.246;2024-03-08T12:03:01;24.43;;;11.97;;
82835;SDS011;72587;50.746;8.246;2024-03-08T12:05:27;29.93;;;12.27;;
82835;SDS011;72587;50.746;8.246;2024-03-08T12:07:56;25.80;;;13.37;;
82835;SDS011;72587;50.746;8.246;2024-03-08T12:10:22;25.37;;;11.57;;
82835;SDS011;72587;50.746;8.246;2024-03-08T12:12:50;30.17;;;13.73;;
82835;SDS011;72587;50.746;8.246;2024-03-08T12:15:17;21.37;;;11.83;;
82835;SDS011;72587;50.746;8.246;2024-03-08T12:17:43;23.87;;;12.80;;
82835;SDS011;72587;50.746;8.246;2024-03-08T12:20:15;25.30;;;12.73;;
82835;SDS011;72587;50.746;8.246;2024-03-08T12:22:42;27.77;;;13.13;;
82835;SDS011;72587;50.746;8.246;2024-03-08T12:25:08;28.07;;;13.53;;
82835;SDS011;72587;50.746;8.246;2024-03-08T12:27:36;24.53;;;13.17;;
82835;SDS011;72587;50.746;8.246;2024-03-08T12:30:18;22.80;;;12.00;;
82835;SDS011;72587;50.746;8.246;2024-03-08T12:32:51;27.77;;;13.17;;
82835;SDS011;72587;50.746;8.246;2024-03-08T12:35:22;22.97;;;11.80;;
82835;SDS011;72587;50.746;8.246;2024-03-08T12:37:49;23.43;;;12.00;;
82835;SDS011;72587;50.746;8.246;2024-03-08T12:40:16;22.77;;;11.83;;
82835;SDS011;72587;50.746;8.246;2024-03-08T12:42:45;21.20;;;11.13;;
82835;SDS011;72587;50.746;8.246;2024-03-08T12:45:14;22.53;;;11.80;;
82835;SDS011;72587;50.746;8.246;2024-03-08T12:47:40;21.73;;;11.53;;
82835;SDS011;72587;50.746;8.246;2024-03-08T12:50:07;26.60;;;12.83;;
82835;SDS011;72587;50.746;8.246;2024-03-08T12:52:33;23.93;;;12.43;;
82835;SDS011;72587;50.746;8.246;2024-03-08T12:54:59;21.43;;;11.83;;
82835;SDS011;72587;50.746;8.246;2024-03-08T12:57:28;25.60;;;12.47;;
82835;SDS011;72587;50.746;8.246;2024-03-08T12:59:54;24.17;;;12.37;;
82835;SDS011;72587;50.746;8.246;2024-03-08T13:02:20;25.27;;;12.73;;
82835;SDS011;72587;50.746;8.246;2024-03-08T13:04:46;25.30;;;12.40;;
82835;SDS011;72587;50.746;8.246;2024-03-08T13:07:22;22.20;;;11.20;;
82835;SDS011;72587;50.746;8.246;2024-03-08T13:09:49;26.07;;;11.93;;
82835;SDS011;72587;50.746;8.246;2024-03-08T13:12:15;21.20;;;10.73;;
82835;SDS011;72587;50.746;8.246;2024-03-08T13:14:41;23.47;;;11.17;;
82835;SDS011;72587;50.746;8.246;2024-03-08T13:17:07;22.60;;;11.30;;
82835;SDS011;72587;50.746;8.246;2024-03-08T13:19:36;21.90;;;11.50;;
82835;SDS011;72587;50.746;8.246;2024-03-08T13:22:03;22.90;;;11.73;;
82835;SDS011;72587;50.746;8.246;2024-03-08T13:24:29;19.97;;;10.70;;
82835;SDS011;72587;50.746;8.246;2024-03-08T13:27:06;22.23;;;11.70;;
82835;SDS011;72587;50.746;8.246;2024-03-08T13:29:41;21.60;;;11.30;;
82835;SDS011;72587;50.746;8.246;2024-03-08T13:32:08;21.70;;;11.20;;
82835;SDS011;72587;50.746;8.246;2024-03-08T13:34:37;20.70;;;9.97;;
82835;SDS011;72587;50.746;8.246;2024-03-08T13:37:03;21.17;;;9.90;;
82835;SDS011;72587;50.746;8.246;2024-03-08T13:39:31;20.43;;;10.00;;
82835;SDS011;72587;50.746;8.246;2024-03-08T13:42:05;18.10;;;9.73;;
82835;SDS011;72587;50.746;8.246;2024-03-08T13:44:34;18.43;;;9.63;;
82835;SDS011;72587;50.746;8.246;2024-03-08T13:47:00;19.70;;;9.77;;
82835;SDS011;72587;50.746;8.246;2024-03-08T13:49:29;18.20;;;9.47;;
82835;SDS011;72587;50.746;8.246;2024-03-08T13:51:55;18.13;;;9.40;;
82835;SDS011;72587;50.746;8.246;2024-03-08T13:54:23;22.67;;;10.60;;
82835;SDS011;72587;50.746;8.246;2024-03-08T13:56:49;18.70;;;9.23;;
82835;SDS011;72587;50.746;8.246;2024-03-08T13:59:19;19.20;;;9.10;;
82835;SDS011;72587;50.746;8.246;2024-03-08T14:01:47;16.87;;;8.90;;
82835;SDS011;72587;50.746;8.246;2024-03-08T14:04:14;19.60;;;9.87;;
82835;SDS011;72587;50.746;8.246;2024-03-08T14:06:42;18.80;;;9.60;;
82835;SDS011;72587;50.746;8.246;2024-03-08T14:09:10;20.17;;;10.17;;
82835;SDS011;72587;50.746;8.246;2024-03-08T14:11:41;19.87;;;9.87;;
82835;SDS011;72587;50.746;8.246;2024-03-08T14:14:07;18.37;;;9.13;;
82835;SDS011;72587;50.746;8.246;2024-03-08T14:16:34;17.30;;;9.47;;
82835;SDS011;72587;50.746;8.246;2024-03-08T14:19:02;18.63;;;9.40;;
82835;SDS011;72587;50.746;8.246;2024-03-08T14:21:30;18.77;;;9.37;;